<?xml version="1.0" encoding="UTF-8" standalone="no" ?>
<gpx xmlns="http://www.topografix.com/GPX/1/1" xmlns:xsi="http://www.w3.org/2001/XMLSchema-instance" xsi:schemaLocation="http://www.topografix.com/GPX/1/1 http://www.topografix.com/GPX/1/1/gpx.xsd" version="1.1" creator="VisuGPX - https://www.visugpx.com">
  <metadata>
    <name>Balcon des Mémises</name>
    <desc><![CDATA[Balcon des Mémises depuis le Creusaz]]></desc>
  </metadata>
  <trk>
    <name><![CDATA[2015-10-24 12:42]]></name>
    <desc><![CDATA[<h1>OruxMaps</h1><br /><hr align="center" width="480" style="height: 2px; width: 517px"/><h2>Name: 2015-10-24 12:42</h2><br /><p>Start time: 10/24/2015 12:42</p><p>Finish time: 10/24/2015 16:50</p><p>Distance: 11.2km (04:08)</p><p>Moving time: 03:26</p><p>Average speed: 2.7km/h</p><p>Avg. Speed Mov.: 3.2km/h</p><p>Max. Speed: 8.5km/h</p><p>Minimum altitude: -4525m</p><p>Maximum altitude: 1657m</p><p>Ascent speed: 6232m/h</p><p>Descent speed: -7165.3m/h</p><p>Elevation gain: 13221m</p><p>Elevation loss: -13220m</p><p>Ascent time: 02:07</p><p>Descent time: 01:50</p><hr align="center" width="480" style="height: 2px; width: 517px"/>]]></desc>
    <trkseg>
      <trkpt lat="46.37011" lon="6.6892">
        <ele>1164.21</ele>
        <time>2015-10-24T10:42:44Z</time>
      </trkpt>
      <trkpt lat="46.37019" lon="6.68944">
        <ele>1167.99</ele>
        <time>2015-10-24T10:43:50Z</time>
      </trkpt>
      <trkpt lat="46.37021" lon="6.68971">
        <ele>1171.7</ele>
        <time>2015-10-24T10:44:47Z</time>
      </trkpt>
      <trkpt lat="46.37009" lon="6.68992">
        <ele>1175.15</ele>
        <time>2015-10-24T10:45:08Z</time>
      </trkpt>
      <trkpt lat="46.36992" lon="6.69003">
        <ele>1178.62</ele>
        <time>2015-10-24T10:45:34Z</time>
      </trkpt>
      <trkpt lat="46.37007" lon="6.68989">
        <ele>1174.77</ele>
        <time>2015-10-24T10:47:19Z</time>
      </trkpt>
      <trkpt lat="46.37017" lon="6.68966">
        <ele>1171.15</ele>
        <time>2015-10-24T10:47:46Z</time>
      </trkpt>
      <trkpt lat="46.37023" lon="6.68941">
        <ele>1167.67</ele>
        <time>2015-10-24T10:48:30Z</time>
      </trkpt>
      <trkpt lat="46.37025" lon="6.68915">
        <ele>1164.48</ele>
        <time>2015-10-24T10:48:41Z</time>
      </trkpt>
      <trkpt lat="46.37029" lon="6.68888">
        <ele>1163.97</ele>
        <time>2015-10-24T10:49:02Z</time>
      </trkpt>
      <trkpt lat="46.37048" lon="6.68889">
        <ele>1165.49</ele>
        <time>2015-10-24T10:49:34Z</time>
      </trkpt>
      <trkpt lat="46.37066" lon="6.68903">
        <ele>1166.93</ele>
        <time>2015-10-24T10:49:50Z</time>
      </trkpt>
      <trkpt lat="46.37083" lon="6.68914">
        <ele>1168.01</ele>
        <time>2015-10-24T10:50:07Z</time>
      </trkpt>
      <trkpt lat="46.37099" lon="6.68928">
        <ele>1169.22</ele>
        <time>2015-10-24T10:50:27Z</time>
      </trkpt>
      <trkpt lat="46.37108" lon="6.68951">
        <ele>1170.47</ele>
        <time>2015-10-24T10:50:48Z</time>
      </trkpt>
      <trkpt lat="46.37125" lon="6.68966">
        <ele>1171.46</ele>
        <time>2015-10-24T10:51:13Z</time>
      </trkpt>
      <trkpt lat="46.37137" lon="6.68986">
        <ele>1172.28</ele>
        <time>2015-10-24T10:51:35Z</time>
      </trkpt>
      <trkpt lat="46.37153" lon="6.69001">
        <ele>1172.93</ele>
        <time>2015-10-24T10:52:10Z</time>
      </trkpt>
      <trkpt lat="46.37167" lon="6.69019">
        <ele>1174.87</ele>
        <time>2015-10-24T10:52:33Z</time>
      </trkpt>
      <trkpt lat="46.37181" lon="6.69039">
        <ele>1176.67</ele>
        <time>2015-10-24T10:52:43Z</time>
      </trkpt>
      <trkpt lat="46.37198" lon="6.69048">
        <ele>1177.21</ele>
        <time>2015-10-24T10:53:00Z</time>
      </trkpt>
      <trkpt lat="46.37214" lon="6.69061">
        <ele>1177.65</ele>
        <time>2015-10-24T10:53:19Z</time>
      </trkpt>
      <trkpt lat="46.37228" lon="6.69081">
        <ele>1177.97</ele>
        <time>2015-10-24T10:53:39Z</time>
      </trkpt>
      <trkpt lat="46.37238" lon="6.69104">
        <ele>1179.45</ele>
        <time>2015-10-24T10:53:57Z</time>
      </trkpt>
      <trkpt lat="46.37247" lon="6.69129">
        <ele>1180.56</ele>
        <time>2015-10-24T10:54:12Z</time>
      </trkpt>
      <trkpt lat="46.3726" lon="6.69147">
        <ele>1180.5</ele>
        <time>2015-10-24T10:54:31Z</time>
      </trkpt>
      <trkpt lat="46.37274" lon="6.69167">
        <ele>1180.21</ele>
        <time>2015-10-24T10:54:52Z</time>
      </trkpt>
      <trkpt lat="46.37283" lon="6.69198">
        <ele>1184.07</ele>
        <time>2015-10-24T10:55:07Z</time>
      </trkpt>
      <trkpt lat="46.37302" lon="6.69212">
        <ele>1182.94</ele>
        <time>2015-10-24T10:55:35Z</time>
      </trkpt>
      <trkpt lat="46.37311" lon="6.69236">
        <ele>1184.38</ele>
        <time>2015-10-24T10:55:54Z</time>
      </trkpt>
      <trkpt lat="46.37321" lon="6.69257">
        <ele>1185.17</ele>
        <time>2015-10-24T10:56:13Z</time>
      </trkpt>
      <trkpt lat="46.37327" lon="6.69283">
        <ele>1188.35</ele>
        <time>2015-10-24T10:56:33Z</time>
      </trkpt>
      <trkpt lat="46.37332" lon="6.69308">
        <ele>1196</ele>
        <time>2015-10-24T10:56:58Z</time>
      </trkpt>
      <trkpt lat="46.37337" lon="6.69333">
        <ele>1194</ele>
        <time>2015-10-24T10:57:19Z</time>
      </trkpt>
      <trkpt lat="46.37335" lon="6.6936">
        <ele>1194</ele>
        <time>2015-10-24T10:57:30Z</time>
      </trkpt>
      <trkpt lat="46.37398" lon="6.70133">
        <ele>1286.44</ele>
        <time>2015-10-24T11:16:13Z</time>
      </trkpt>
      <trkpt lat="46.37382" lon="6.70118">
        <ele>1288.72</ele>
        <time>2015-10-24T11:16:39Z</time>
      </trkpt>
      <trkpt lat="46.37368" lon="6.70101">
        <ele>1290.14</ele>
        <time>2015-10-24T11:17:06Z</time>
      </trkpt>
      <trkpt lat="46.37352" lon="6.70115">
        <ele>1301.41</ele>
        <time>2015-10-24T11:17:52Z</time>
      </trkpt>
      <trkpt lat="46.37352" lon="6.70141">
        <ele>1308.52</ele>
        <time>2015-10-24T11:18:21Z</time>
      </trkpt>
      <trkpt lat="46.37355" lon="6.70167">
        <ele>1314.4</ele>
        <time>2015-10-24T11:18:49Z</time>
      </trkpt>
      <trkpt lat="46.37338" lon="6.70174">
        <ele>1323.31</ele>
        <time>2015-10-24T11:19:41Z</time>
      </trkpt>
      <trkpt lat="46.37321" lon="6.70184">
        <ele>1331.79</ele>
        <time>2015-10-24T11:20:27Z</time>
      </trkpt>
      <trkpt lat="46.37303" lon="6.70183">
        <ele>1337.68</ele>
        <time>2015-10-24T11:21:09Z</time>
      </trkpt>
      <trkpt lat="46.37285" lon="6.70184">
        <ele>1344.04</ele>
        <time>2015-10-24T11:21:36Z</time>
      </trkpt>
      <trkpt lat="46.37268" lon="6.70173">
        <ele>1347.1</ele>
        <time>2015-10-24T11:22:40Z</time>
      </trkpt>
      <trkpt lat="46.3725" lon="6.70167">
        <ele>1352.04</ele>
        <time>2015-10-24T11:23:08Z</time>
      </trkpt>
      <trkpt lat="46.37233" lon="6.70178">
        <ele>1360.48</ele>
        <time>2015-10-24T11:23:49Z</time>
      </trkpt>
      <trkpt lat="46.37216" lon="6.70187">
        <ele>1368.75</ele>
        <time>2015-10-24T11:24:17Z</time>
      </trkpt>
      <trkpt lat="46.37199" lon="6.70193">
        <ele>1376.29</ele>
        <time>2015-10-24T11:25:03Z</time>
      </trkpt>
      <trkpt lat="46.37195" lon="6.7022">
        <ele>1382.75</ele>
        <time>2015-10-24T11:26:45Z</time>
      </trkpt>
      <trkpt lat="46.37201" lon="6.70245">
        <ele>1385.53</ele>
        <time>2015-10-24T11:27:14Z</time>
      </trkpt>
      <trkpt lat="46.37208" lon="6.7027">
        <ele>1390.24</ele>
        <time>2015-10-24T11:27:39Z</time>
      </trkpt>
      <trkpt lat="46.3719" lon="6.70266">
        <ele>1395.52</ele>
        <time>2015-10-24T11:28:23Z</time>
      </trkpt>
      <trkpt lat="46.37172" lon="6.70263">
        <ele>1401.12</ele>
        <time>2015-10-24T11:28:53Z</time>
      </trkpt>
      <trkpt lat="46.37156" lon="6.70273">
        <ele>1413.21</ele>
        <time>2015-10-24T11:29:44Z</time>
      </trkpt>
      <trkpt lat="46.37137" lon="6.70273">
        <ele>1422.84</ele>
        <time>2015-10-24T11:30:19Z</time>
      </trkpt>
      <trkpt lat="46.37132" lon="6.70299">
        <ele>1434.92</ele>
        <time>2015-10-24T11:31:12Z</time>
      </trkpt>
      <trkpt lat="46.37126" lon="6.70323">
        <ele>1446.93</ele>
        <time>2015-10-24T11:32:35Z</time>
      </trkpt>
      <trkpt lat="46.37126" lon="6.7035">
        <ele>1459.43</ele>
        <time>2015-10-24T11:33:59Z</time>
      </trkpt>
      <trkpt lat="46.37111" lon="6.70366">
        <ele>1473.21</ele>
        <time>2015-10-24T11:35:51Z</time>
      </trkpt>
      <trkpt lat="46.37117" lon="6.70394">
        <ele>1485.02</ele>
        <time>2015-10-24T11:36:44Z</time>
      </trkpt>
      <trkpt lat="46.37128" lon="6.70417">
        <ele>1495.36</ele>
        <time>2015-10-24T11:37:07Z</time>
      </trkpt>
      <trkpt lat="46.37145" lon="6.70427">
        <ele>1499.38</ele>
        <time>2015-10-24T11:37:40Z</time>
      </trkpt>
      <trkpt lat="46.37163" lon="6.70425">
        <ele>1497.51</ele>
        <time>2015-10-24T11:38:10Z</time>
      </trkpt>
      <trkpt lat="46.37154" lon="6.70448">
        <ele>1513.38</ele>
        <time>2015-10-24T11:38:56Z</time>
      </trkpt>
      <trkpt lat="46.37137" lon="6.70462">
        <ele>1518.97</ele>
        <time>2015-10-24T11:39:26Z</time>
      </trkpt>
      <trkpt lat="46.3712" lon="6.70456">
        <ele>1512.66</ele>
        <time>2015-10-24T11:40:07Z</time>
      </trkpt>
      <trkpt lat="46.37102" lon="6.70461">
        <ele>1511.27</ele>
        <time>2015-10-24T11:40:32Z</time>
      </trkpt>
      <trkpt lat="46.37086" lon="6.70473">
        <ele>1510.09</ele>
        <time>2015-10-24T11:40:56Z</time>
      </trkpt>
      <trkpt lat="46.37076" lon="6.70496">
        <ele>1505</ele>
        <time>2015-10-24T11:41:57Z</time>
      </trkpt>
      <trkpt lat="46.37067" lon="6.7052">
        <ele>1502</ele>
        <time>2015-10-24T11:42:20Z</time>
      </trkpt>
      <trkpt lat="46.37082" lon="6.70535">
        <ele>1505</ele>
        <time>2015-10-24T11:44:01Z</time>
      </trkpt>
      <trkpt lat="46.37099" lon="6.70545">
        <ele>1532.24</ele>
        <time>2015-10-24T11:44:47Z</time>
      </trkpt>
      <trkpt lat="46.37117" lon="6.70547">
        <ele>1540.77</ele>
        <time>2015-10-24T11:45:53Z</time>
      </trkpt>
      <trkpt lat="46.37136" lon="6.70552">
        <ele>1549.91</ele>
        <time>2015-10-24T11:46:46Z</time>
      </trkpt>
      <trkpt lat="46.3715" lon="6.7057">
        <ele>1559.39</ele>
        <time>2015-10-24T11:47:41Z</time>
      </trkpt>
      <trkpt lat="46.37164" lon="6.70587">
        <ele>1567.49</ele>
        <time>2015-10-24T11:48:07Z</time>
      </trkpt>
      <trkpt lat="46.37183" lon="6.70591">
        <ele>1573.56</ele>
        <time>2015-10-24T11:48:46Z</time>
      </trkpt>
      <trkpt lat="46.372" lon="6.70586">
        <ele>1580.65</ele>
        <time>2015-10-24T11:49:23Z</time>
      </trkpt>
      <trkpt lat="46.37218" lon="6.70576">
        <ele>1586.29</ele>
        <time>2015-10-24T11:49:56Z</time>
      </trkpt>
      <trkpt lat="46.37235" lon="6.70569">
        <ele>1591.79</ele>
        <time>2015-10-24T11:50:43Z</time>
      </trkpt>
      <trkpt lat="46.37249" lon="6.70552">
        <ele>1594.77</ele>
        <time>2015-10-24T11:51:20Z</time>
      </trkpt>
      <trkpt lat="46.37266" lon="6.70541">
        <ele>1596.69</ele>
        <time>2015-10-24T11:52:13Z</time>
      </trkpt>
      <trkpt lat="46.37283" lon="6.7053">
        <ele>1598.4</ele>
        <time>2015-10-24T11:52:46Z</time>
      </trkpt>
      <trkpt lat="46.37297" lon="6.70549">
        <ele>1603.23</ele>
        <time>2015-10-24T11:58:12Z</time>
      </trkpt>
      <trkpt lat="46.37309" lon="6.70571">
        <ele>1608.02</ele>
        <time>2015-10-24T11:58:31Z</time>
      </trkpt>
      <trkpt lat="46.37323" lon="6.70588">
        <ele>1611.39</ele>
        <time>2015-10-24T11:59:16Z</time>
      </trkpt>
      <trkpt lat="46.37341" lon="6.70594">
        <ele>1610.71</ele>
        <time>2015-10-24T11:59:56Z</time>
      </trkpt>
      <trkpt lat="46.37361" lon="6.70595">
        <ele>1606.64</ele>
        <time>2015-10-24T12:00:24Z</time>
      </trkpt>
      <trkpt lat="46.37378" lon="6.70606">
        <ele>1602.85</ele>
        <time>2015-10-24T12:00:46Z</time>
      </trkpt>
      <trkpt lat="46.37394" lon="6.70621">
        <ele>1600.46</ele>
        <time>2015-10-24T12:01:06Z</time>
      </trkpt>
      <trkpt lat="46.37409" lon="6.70636">
        <ele>1599.36</ele>
        <time>2015-10-24T12:01:25Z</time>
      </trkpt>
      <trkpt lat="46.3742" lon="6.70659">
        <ele>1590</ele>
        <time>2015-10-24T12:02:24Z</time>
      </trkpt>
      <trkpt lat="46.3743" lon="6.7068">
        <ele>1593</ele>
        <time>2015-10-24T12:02:46Z</time>
      </trkpt>
      <trkpt lat="46.37442" lon="6.70701">
        <ele>1590</ele>
        <time>2015-10-24T12:03:07Z</time>
      </trkpt>
      <trkpt lat="46.37454" lon="6.70721">
        <ele>1590</ele>
        <time>2015-10-24T12:03:29Z</time>
      </trkpt>
      <trkpt lat="46.37467" lon="6.7074">
        <ele>1590</ele>
        <time>2015-10-24T12:03:47Z</time>
      </trkpt>
      <trkpt lat="46.37482" lon="6.70759">
        <ele>1594.44</ele>
        <time>2015-10-24T12:04:10Z</time>
      </trkpt>
      <trkpt lat="46.37496" lon="6.70777">
        <ele>1594.33</ele>
        <time>2015-10-24T12:04:24Z</time>
      </trkpt>
      <trkpt lat="46.3751" lon="6.70793">
        <ele>1596.66</ele>
        <time>2015-10-24T12:04:40Z</time>
      </trkpt>
      <trkpt lat="46.37525" lon="6.70807">
        <ele>1600.25</ele>
        <time>2015-10-24T12:05:14Z</time>
      </trkpt>
      <trkpt lat="46.37543" lon="6.70816">
        <ele>1604.65</ele>
        <time>2015-10-24T12:05:36Z</time>
      </trkpt>
      <trkpt lat="46.3756" lon="6.70825">
        <ele>1609.3</ele>
        <time>2015-10-24T12:05:59Z</time>
      </trkpt>
      <trkpt lat="46.37576" lon="6.70836">
        <ele>1614.01</ele>
        <time>2015-10-24T12:06:25Z</time>
      </trkpt>
      <trkpt lat="46.37594" lon="6.70844">
        <ele>1610.25</ele>
        <time>2015-10-24T12:06:44Z</time>
      </trkpt>
      <trkpt lat="46.37609" lon="6.70859">
        <ele>1604.25</ele>
        <time>2015-10-24T12:07:07Z</time>
      </trkpt>
      <trkpt lat="46.37623" lon="6.70874">
        <ele>1601.88</ele>
        <time>2015-10-24T12:07:28Z</time>
      </trkpt>
      <trkpt lat="46.37638" lon="6.70891">
        <ele>1603.01</ele>
        <time>2015-10-24T12:08:43Z</time>
      </trkpt>
      <trkpt lat="46.37642" lon="6.70917">
        <ele>1611.3</ele>
        <time>2015-10-24T12:09:05Z</time>
      </trkpt>
      <trkpt lat="46.37647" lon="6.70943">
        <ele>1611.92</ele>
        <time>2015-10-24T12:09:24Z</time>
      </trkpt>
      <trkpt lat="46.37655" lon="6.70967">
        <ele>1613.37</ele>
        <time>2015-10-24T12:09:45Z</time>
      </trkpt>
      <trkpt lat="46.37667" lon="6.70986">
        <ele>1615.62</ele>
        <time>2015-10-24T12:10:03Z</time>
      </trkpt>
      <trkpt lat="46.37675" lon="6.7101">
        <ele>1612.39</ele>
        <time>2015-10-24T12:11:14Z</time>
      </trkpt>
      <trkpt lat="46.37682" lon="6.71035">
        <ele>1609.85</ele>
        <time>2015-10-24T12:11:31Z</time>
      </trkpt>
      <trkpt lat="46.37686" lon="6.71061">
        <ele>1610.15</ele>
        <time>2015-10-24T12:11:47Z</time>
      </trkpt>
      <trkpt lat="46.37694" lon="6.71085">
        <ele>1609.49</ele>
        <time>2015-10-24T12:12:06Z</time>
      </trkpt>
      <trkpt lat="46.37704" lon="6.7111">
        <ele>1607.89</ele>
        <time>2015-10-24T12:12:22Z</time>
      </trkpt>
      <trkpt lat="46.37712" lon="6.71133">
        <ele>1608.69</ele>
        <time>2015-10-24T12:12:40Z</time>
      </trkpt>
      <trkpt lat="46.3772" lon="6.71156">
        <ele>1611.31</ele>
        <time>2015-10-24T12:12:56Z</time>
      </trkpt>
      <trkpt lat="46.37729" lon="6.7118">
        <ele>1614.19</ele>
        <time>2015-10-24T12:13:12Z</time>
      </trkpt>
      <trkpt lat="46.37743" lon="6.71197">
        <ele>1617.58</ele>
        <time>2015-10-24T12:13:30Z</time>
      </trkpt>
      <trkpt lat="46.37759" lon="6.71211">
        <ele>1621.57</ele>
        <time>2015-10-24T12:13:59Z</time>
      </trkpt>
      <trkpt lat="46.37777" lon="6.71218">
        <ele>1625.27</ele>
        <time>2015-10-24T12:14:33Z</time>
      </trkpt>
      <trkpt lat="46.37794" lon="6.71226">
        <ele>1629.69</ele>
        <time>2015-10-24T12:14:59Z</time>
      </trkpt>
      <trkpt lat="46.3781" lon="6.71238">
        <ele>1635.43</ele>
        <time>2015-10-24T12:15:40Z</time>
      </trkpt>
      <trkpt lat="46.37828" lon="6.71244">
        <ele>1640.85</ele>
        <time>2015-10-24T12:16:11Z</time>
      </trkpt>
      <trkpt lat="46.37845" lon="6.71255">
        <ele>1642.32</ele>
        <time>2015-10-24T12:16:41Z</time>
      </trkpt>
      <trkpt lat="46.37863" lon="6.71256">
        <ele>1639.64</ele>
        <time>2015-10-24T12:17:08Z</time>
      </trkpt>
      <trkpt lat="46.37876" lon="6.71275">
        <ele>1637.62</ele>
        <time>2015-10-24T12:22:57Z</time>
      </trkpt>
      <trkpt lat="46.37879" lon="6.71302">
        <ele>1636.73</ele>
        <time>2015-10-24T12:23:15Z</time>
      </trkpt>
      <trkpt lat="46.37884" lon="6.71327">
        <ele>1635.72</ele>
        <time>2015-10-24T12:23:36Z</time>
      </trkpt>
      <trkpt lat="46.37888" lon="6.71354">
        <ele>1635.75</ele>
        <time>2015-10-24T12:23:56Z</time>
      </trkpt>
      <trkpt lat="46.3791" lon="6.71417">
        <ele>1640.17</ele>
        <time>2015-10-24T12:24:39Z</time>
      </trkpt>
      <trkpt lat="46.37917" lon="6.71442">
        <ele>1640.68</ele>
        <time>2015-10-24T12:24:56Z</time>
      </trkpt>
      <trkpt lat="46.37924" lon="6.71468">
        <ele>1637.15</ele>
        <time>2015-10-24T12:25:14Z</time>
      </trkpt>
      <trkpt lat="46.37933" lon="6.71495">
        <ele>1633.19</ele>
        <time>2015-10-24T12:25:29Z</time>
      </trkpt>
      <trkpt lat="46.37939" lon="6.71521">
        <ele>1629.81</ele>
        <time>2015-10-24T12:25:53Z</time>
      </trkpt>
      <trkpt lat="46.37946" lon="6.71546">
        <ele>1626.61</ele>
        <time>2015-10-24T12:26:11Z</time>
      </trkpt>
      <trkpt lat="46.37951" lon="6.71573">
        <ele>1624.75</ele>
        <time>2015-10-24T12:26:29Z</time>
      </trkpt>
      <trkpt lat="46.37959" lon="6.71598">
        <ele>1621.9</ele>
        <time>2015-10-24T12:26:46Z</time>
      </trkpt>
      <trkpt lat="46.37959" lon="6.71624">
        <ele>1620.14</ele>
        <time>2015-10-24T12:27:04Z</time>
      </trkpt>
      <trkpt lat="46.37964" lon="6.71651">
        <ele>1617.74</ele>
        <time>2015-10-24T12:27:20Z</time>
      </trkpt>
      <trkpt lat="46.37971" lon="6.71676">
        <ele>1615.27</ele>
        <time>2015-10-24T12:27:36Z</time>
      </trkpt>
      <trkpt lat="46.37977" lon="6.71702">
        <ele>1612.26</ele>
        <time>2015-10-24T12:27:52Z</time>
      </trkpt>
      <trkpt lat="46.37979" lon="6.71729">
        <ele>1609.68</ele>
        <time>2015-10-24T12:28:10Z</time>
      </trkpt>
      <trkpt lat="46.37979" lon="6.71756">
        <ele>1607.41</ele>
        <time>2015-10-24T12:28:27Z</time>
      </trkpt>
      <trkpt lat="46.37977" lon="6.71783">
        <ele>1605.95</ele>
        <time>2015-10-24T12:28:48Z</time>
      </trkpt>
      <trkpt lat="46.3798" lon="6.71809">
        <ele>1604.15</ele>
        <time>2015-10-24T12:29:05Z</time>
      </trkpt>
      <trkpt lat="46.37984" lon="6.71835">
        <ele>1602.16</ele>
        <time>2015-10-24T12:29:22Z</time>
      </trkpt>
      <trkpt lat="46.3798" lon="6.71862">
        <ele>1600.09</ele>
        <time>2015-10-24T12:29:38Z</time>
      </trkpt>
      <trkpt lat="46.37971" lon="6.71885">
        <ele>1598.96</ele>
        <time>2015-10-24T12:29:54Z</time>
      </trkpt>
      <trkpt lat="46.3797" lon="6.71911">
        <ele>1596.74</ele>
        <time>2015-10-24T12:30:10Z</time>
      </trkpt>
      <trkpt lat="46.37968" lon="6.71938">
        <ele>1595.43</ele>
        <time>2015-10-24T12:30:36Z</time>
      </trkpt>
      <trkpt lat="46.37968" lon="6.71965">
        <ele>1594.15</ele>
        <time>2015-10-24T12:30:51Z</time>
      </trkpt>
      <trkpt lat="46.37969" lon="6.71992">
        <ele>1592.67</ele>
        <time>2015-10-24T12:31:07Z</time>
      </trkpt>
      <trkpt lat="46.37975" lon="6.72018">
        <ele>1591.06</ele>
        <time>2015-10-24T12:31:22Z</time>
      </trkpt>
      <trkpt lat="46.37983" lon="6.72043">
        <ele>1589.49</ele>
        <time>2015-10-24T12:31:39Z</time>
      </trkpt>
      <trkpt lat="46.37987" lon="6.72069">
        <ele>1588.33</ele>
        <time>2015-10-24T12:31:58Z</time>
      </trkpt>
      <trkpt lat="46.37986" lon="6.72096">
        <ele>1587.57</ele>
        <time>2015-10-24T12:32:18Z</time>
      </trkpt>
      <trkpt lat="46.37984" lon="6.72123">
        <ele>1586.63</ele>
        <time>2015-10-24T12:32:36Z</time>
      </trkpt>
      <trkpt lat="46.37987" lon="6.72151">
        <ele>1585.57</ele>
        <time>2015-10-24T12:32:51Z</time>
      </trkpt>
      <trkpt lat="46.37986" lon="6.72179">
        <ele>1584.57</ele>
        <time>2015-10-24T12:33:08Z</time>
      </trkpt>
      <trkpt lat="46.37987" lon="6.72205">
        <ele>1583.61</ele>
        <time>2015-10-24T12:33:24Z</time>
      </trkpt>
      <trkpt lat="46.37984" lon="6.72233">
        <ele>1582.6</ele>
        <time>2015-10-24T12:33:40Z</time>
      </trkpt>
      <trkpt lat="46.37982" lon="6.7226">
        <ele>1582.21</ele>
        <time>2015-10-24T12:33:56Z</time>
      </trkpt>
      <trkpt lat="46.3798" lon="6.72286">
        <ele>1582.69</ele>
        <time>2015-10-24T12:34:12Z</time>
      </trkpt>
      <trkpt lat="46.37975" lon="6.72311">
        <ele>1582.7</ele>
        <time>2015-10-24T12:35:23Z</time>
      </trkpt>
      <trkpt lat="46.37968" lon="6.72274">
        <ele>1582.05</ele>
        <time>2015-10-24T12:35:40Z</time>
      </trkpt>
      <trkpt lat="46.37971" lon="6.72307">
        <ele>1582.35</ele>
        <time>2015-10-24T12:36:07Z</time>
      </trkpt>
      <trkpt lat="46.37953" lon="6.72314">
        <ele>1580.78</ele>
        <time>2015-10-24T12:36:31Z</time>
      </trkpt>
      <trkpt lat="46.37948" lon="6.7234">
        <ele>1579.66</ele>
        <time>2015-10-24T12:37:03Z</time>
      </trkpt>
      <trkpt lat="46.37955" lon="6.72365">
        <ele>1580.5</ele>
        <time>2015-10-24T12:37:22Z</time>
      </trkpt>
      <trkpt lat="46.37971" lon="6.72378">
        <ele>1582.89</ele>
        <time>2015-10-24T12:37:43Z</time>
      </trkpt>
      <trkpt lat="46.37988" lon="6.72402">
        <ele>1585.79</ele>
        <time>2015-10-24T12:38:18Z</time>
      </trkpt>
      <trkpt lat="46.37992" lon="6.72427">
        <ele>1587.51</ele>
        <time>2015-10-24T12:38:45Z</time>
      </trkpt>
      <trkpt lat="46.38002" lon="6.72448">
        <ele>1589.54</ele>
        <time>2015-10-24T12:39:30Z</time>
      </trkpt>
      <trkpt lat="46.38004" lon="6.72476">
        <ele>1591.55</ele>
        <time>2015-10-24T12:39:49Z</time>
      </trkpt>
      <trkpt lat="46.38005" lon="6.72502">
        <ele>1593.82</ele>
        <time>2015-10-24T12:40:16Z</time>
      </trkpt>
      <trkpt lat="46.38024" lon="6.72582">
        <ele>1596.53</ele>
        <time>2015-10-24T12:41:19Z</time>
      </trkpt>
      <trkpt lat="46.38035" lon="6.72603">
        <ele>1597.99</ele>
        <time>2015-10-24T12:41:53Z</time>
      </trkpt>
      <trkpt lat="46.38043" lon="6.72627">
        <ele>1602.66</ele>
        <time>2015-10-24T12:42:18Z</time>
      </trkpt>
      <trkpt lat="46.38053" lon="6.72649">
        <ele>1608.56</ele>
        <time>2015-10-24T12:42:40Z</time>
      </trkpt>
      <trkpt lat="46.38059" lon="6.72674">
        <ele>1615.8</ele>
        <time>2015-10-24T12:43:09Z</time>
      </trkpt>
      <trkpt lat="46.38072" lon="6.72692">
        <ele>1620.49</ele>
        <time>2015-10-24T12:43:32Z</time>
      </trkpt>
      <trkpt lat="46.38085" lon="6.7271">
        <ele>1624.65</ele>
        <time>2015-10-24T12:44:04Z</time>
      </trkpt>
      <trkpt lat="46.38097" lon="6.7273">
        <ele>1623.2</ele>
        <time>2015-10-24T12:44:46Z</time>
      </trkpt>
      <trkpt lat="46.38111" lon="6.72747">
        <ele>1620.59</ele>
        <time>2015-10-24T12:45:13Z</time>
      </trkpt>
      <trkpt lat="46.38115" lon="6.72774">
        <ele>1620.42</ele>
        <time>2015-10-24T12:47:01Z</time>
      </trkpt>
      <trkpt lat="46.3811" lon="6.72799">
        <ele>1623.18</ele>
        <time>2015-10-24T12:47:16Z</time>
      </trkpt>
      <trkpt lat="46.38104" lon="6.72824">
        <ele>1626.94</ele>
        <time>2015-10-24T12:47:31Z</time>
      </trkpt>
      <trkpt lat="46.38107" lon="6.7285">
        <ele>1627.61</ele>
        <time>2015-10-24T12:47:51Z</time>
      </trkpt>
      <trkpt lat="46.38108" lon="6.72878">
        <ele>1630.21</ele>
        <time>2015-10-24T12:48:13Z</time>
      </trkpt>
      <trkpt lat="46.3811" lon="6.72904">
        <ele>1632.23</ele>
        <time>2015-10-24T12:48:36Z</time>
      </trkpt>
      <trkpt lat="46.38114" lon="6.7293">
        <ele>1633.15</ele>
        <time>2015-10-24T12:48:52Z</time>
      </trkpt>
      <trkpt lat="46.38122" lon="6.72954">
        <ele>1632.62</ele>
        <time>2015-10-24T12:49:15Z</time>
      </trkpt>
      <trkpt lat="46.3813" lon="6.72979">
        <ele>1632.66</ele>
        <time>2015-10-24T12:49:34Z</time>
      </trkpt>
      <trkpt lat="46.38138" lon="6.73003">
        <ele>1633.45</ele>
        <time>2015-10-24T12:49:52Z</time>
      </trkpt>
      <trkpt lat="46.38145" lon="6.73028">
        <ele>1634.82</ele>
        <time>2015-10-24T12:50:11Z</time>
      </trkpt>
      <trkpt lat="46.38148" lon="6.73054">
        <ele>1637.46</ele>
        <time>2015-10-24T12:50:28Z</time>
      </trkpt>
      <trkpt lat="46.38153" lon="6.73081">
        <ele>1640.51</ele>
        <time>2015-10-24T12:50:48Z</time>
      </trkpt>
      <trkpt lat="46.38156" lon="6.73108">
        <ele>1644.46</ele>
        <time>2015-10-24T12:51:11Z</time>
      </trkpt>
      <trkpt lat="46.38161" lon="6.73133">
        <ele>1648.7</ele>
        <time>2015-10-24T12:51:35Z</time>
      </trkpt>
      <trkpt lat="46.38166" lon="6.73159">
        <ele>1653.55</ele>
        <time>2015-10-24T12:52:02Z</time>
      </trkpt>
      <trkpt lat="46.38171" lon="6.73184">
        <ele>1653.49</ele>
        <time>2015-10-24T12:52:24Z</time>
      </trkpt>
      <trkpt lat="46.38174" lon="6.7321">
        <ele>1653.88</ele>
        <time>2015-10-24T12:52:42Z</time>
      </trkpt>
      <trkpt lat="46.38177" lon="6.73236">
        <ele>1654.11</ele>
        <time>2015-10-24T12:53:07Z</time>
      </trkpt>
      <trkpt lat="46.38181" lon="6.73262">
        <ele>1653.34</ele>
        <time>2015-10-24T12:53:27Z</time>
      </trkpt>
      <trkpt lat="46.38187" lon="6.73308">
        <ele>1652.56</ele>
        <time>2015-10-24T12:53:49Z</time>
      </trkpt>
      <trkpt lat="46.38188" lon="6.73335">
        <ele>1653.67</ele>
        <time>2015-10-24T12:54:18Z</time>
      </trkpt>
      <trkpt lat="46.38192" lon="6.73366">
        <ele>1651.35</ele>
        <time>2015-10-24T12:54:51Z</time>
      </trkpt>
      <trkpt lat="46.38189" lon="6.73392">
        <ele>1653.43</ele>
        <time>2015-10-24T13:01:41Z</time>
      </trkpt>
      <trkpt lat="46.38184" lon="6.73417">
        <ele>1657.11</ele>
        <time>2015-10-24T13:02:05Z</time>
      </trkpt>
      <trkpt lat="46.38181" lon="6.73444">
        <ele>1656</ele>
        <time>2015-10-24T13:02:22Z</time>
      </trkpt>
      <trkpt lat="46.3818" lon="6.73472">
        <ele>1654.3</ele>
        <time>2015-10-24T13:02:40Z</time>
      </trkpt>
      <trkpt lat="46.38184" lon="6.73498">
        <ele>1648.76</ele>
        <time>2015-10-24T13:03:01Z</time>
      </trkpt>
      <trkpt lat="46.38185" lon="6.73525">
        <ele>1644.2</ele>
        <time>2015-10-24T13:03:24Z</time>
      </trkpt>
      <trkpt lat="46.38181" lon="6.73552">
        <ele>1643.25</ele>
        <time>2015-10-24T13:03:50Z</time>
      </trkpt>
      <trkpt lat="46.38171" lon="6.73573">
        <ele>1647.7</ele>
        <time>2015-10-24T13:04:15Z</time>
      </trkpt>
      <trkpt lat="46.38161" lon="6.73598">
        <ele>1645.4</ele>
        <time>2015-10-24T13:04:32Z</time>
      </trkpt>
      <trkpt lat="46.38153" lon="6.73622">
        <ele>1639.95</ele>
        <time>2015-10-24T13:04:50Z</time>
      </trkpt>
      <trkpt lat="46.3815" lon="6.73648">
        <ele>1634.71</ele>
        <time>2015-10-24T13:05:04Z</time>
      </trkpt>
      <trkpt lat="46.38147" lon="6.73674">
        <ele>1629.64</ele>
        <time>2015-10-24T13:05:27Z</time>
      </trkpt>
      <trkpt lat="46.38147" lon="6.73702">
        <ele>1623.9</ele>
        <time>2015-10-24T13:05:48Z</time>
      </trkpt>
      <trkpt lat="46.38144" lon="6.73729">
        <ele>1618.58</ele>
        <time>2015-10-24T13:06:04Z</time>
      </trkpt>
      <trkpt lat="46.38139" lon="6.73755">
        <ele>1614.48</ele>
        <time>2015-10-24T13:06:18Z</time>
      </trkpt>
      <trkpt lat="46.38131" lon="6.73778">
        <ele>1612.09</ele>
        <time>2015-10-24T13:06:34Z</time>
      </trkpt>
      <trkpt lat="46.38121" lon="6.73802">
        <ele>1611.45</ele>
        <time>2015-10-24T13:06:48Z</time>
      </trkpt>
      <trkpt lat="46.38111" lon="6.73824">
        <ele>1612.11</ele>
        <time>2015-10-24T13:07:04Z</time>
      </trkpt>
      <trkpt lat="46.381" lon="6.73844">
        <ele>1613.05</ele>
        <time>2015-10-24T13:09:06Z</time>
      </trkpt>
      <trkpt lat="46.38091" lon="6.73867">
        <ele>1611.81</ele>
        <time>2015-10-24T13:09:19Z</time>
      </trkpt>
      <trkpt lat="46.38082" lon="6.73891">
        <ele>1610.25</ele>
        <time>2015-10-24T13:09:55Z</time>
      </trkpt>
      <trkpt lat="46.38073" lon="6.73914">
        <ele>1606.77</ele>
        <time>2015-10-24T13:10:08Z</time>
      </trkpt>
      <trkpt lat="46.38054" lon="6.73912">
        <ele>1609.63</ele>
        <time>2015-10-24T13:10:23Z</time>
      </trkpt>
      <trkpt lat="46.38036" lon="6.73916">
        <ele>1611.28</ele>
        <time>2015-10-24T13:10:42Z</time>
      </trkpt>
      <trkpt lat="46.38018" lon="6.73907">
        <ele>1614.64</ele>
        <time>2015-10-24T13:11:03Z</time>
      </trkpt>
      <trkpt lat="46.38" lon="6.73901">
        <ele>1617.33</ele>
        <time>2015-10-24T13:11:23Z</time>
      </trkpt>
      <trkpt lat="46.37982" lon="6.73895">
        <ele>1618.86</ele>
        <time>2015-10-24T13:11:42Z</time>
      </trkpt>
      <trkpt lat="46.37963" lon="6.73897">
        <ele>1619.91</ele>
        <time>2015-10-24T13:12:17Z</time>
      </trkpt>
      <trkpt lat="46.37946" lon="6.73907">
        <ele>1620.75</ele>
        <time>2015-10-24T13:12:33Z</time>
      </trkpt>
      <trkpt lat="46.37929" lon="6.73916">
        <ele>1621.95</ele>
        <time>2015-10-24T13:12:53Z</time>
      </trkpt>
      <trkpt lat="46.37912" lon="6.73926">
        <ele>1623.04</ele>
        <time>2015-10-24T13:13:11Z</time>
      </trkpt>
      <trkpt lat="46.37895" lon="6.73933">
        <ele>1624.37</ele>
        <time>2015-10-24T13:13:25Z</time>
      </trkpt>
      <trkpt lat="46.37877" lon="6.73944">
        <ele>1625.96</ele>
        <time>2015-10-24T13:13:42Z</time>
      </trkpt>
      <trkpt lat="46.37859" lon="6.7395">
        <ele>1627.93</ele>
        <time>2015-10-24T13:13:57Z</time>
      </trkpt>
      <trkpt lat="46.37841" lon="6.73957">
        <ele>1630.05</ele>
        <time>2015-10-24T13:14:14Z</time>
      </trkpt>
      <trkpt lat="46.37823" lon="6.73958">
        <ele>1633.36</ele>
        <time>2015-10-24T13:14:34Z</time>
      </trkpt>
      <trkpt lat="46.37807" lon="6.73943">
        <ele>1635.96</ele>
        <time>2015-10-24T13:14:53Z</time>
      </trkpt>
      <trkpt lat="46.37804" lon="6.73916">
        <ele>1635.3</ele>
        <time>2015-10-24T13:15:13Z</time>
      </trkpt>
      <trkpt lat="46.37801" lon="6.73888">
        <ele>1634.24</ele>
        <time>2015-10-24T13:15:30Z</time>
      </trkpt>
      <trkpt lat="46.37799" lon="6.73861">
        <ele>1633.36</ele>
        <time>2015-10-24T13:15:46Z</time>
      </trkpt>
      <trkpt lat="46.37799" lon="6.73834">
        <ele>1631.65</ele>
        <time>2015-10-24T13:16:04Z</time>
      </trkpt>
      <trkpt lat="46.37803" lon="6.73808">
        <ele>1629.32</ele>
        <time>2015-10-24T13:16:18Z</time>
      </trkpt>
      <trkpt lat="46.3781" lon="6.73783">
        <ele>1625.89</ele>
        <time>2015-10-24T13:16:35Z</time>
      </trkpt>
      <trkpt lat="46.37812" lon="6.73755">
        <ele>1623.86</ele>
        <time>2015-10-24T13:16:57Z</time>
      </trkpt>
      <trkpt lat="46.37822" lon="6.73734">
        <ele>1619.02</ele>
        <time>2015-10-24T13:17:13Z</time>
      </trkpt>
      <trkpt lat="46.37826" lon="6.73707">
        <ele>1616.02</ele>
        <time>2015-10-24T13:17:28Z</time>
      </trkpt>
      <trkpt lat="46.37827" lon="6.73662">
        <ele>1612.43</ele>
        <time>2015-10-24T13:17:50Z</time>
      </trkpt>
      <trkpt lat="46.37836" lon="6.73639">
        <ele>1610.09</ele>
        <time>2015-10-24T13:18:10Z</time>
      </trkpt>
      <trkpt lat="46.37843" lon="6.73614">
        <ele>1609.34</ele>
        <time>2015-10-24T13:18:25Z</time>
      </trkpt>
      <trkpt lat="46.37852" lon="6.73592">
        <ele>1608.41</ele>
        <time>2015-10-24T13:18:41Z</time>
      </trkpt>
      <trkpt lat="46.37859" lon="6.73566">
        <ele>1607.25</ele>
        <time>2015-10-24T13:18:57Z</time>
      </trkpt>
      <trkpt lat="46.37866" lon="6.7354">
        <ele>1606.06</ele>
        <time>2015-10-24T13:19:12Z</time>
      </trkpt>
      <trkpt lat="46.3787" lon="6.73515">
        <ele>1604.8</ele>
        <time>2015-10-24T13:19:27Z</time>
      </trkpt>
      <trkpt lat="46.37875" lon="6.73488">
        <ele>1603.27</ele>
        <time>2015-10-24T13:19:41Z</time>
      </trkpt>
      <trkpt lat="46.37878" lon="6.7346">
        <ele>1601.51</ele>
        <time>2015-10-24T13:19:56Z</time>
      </trkpt>
      <trkpt lat="46.37881" lon="6.73434">
        <ele>1599.8</ele>
        <time>2015-10-24T13:20:11Z</time>
      </trkpt>
      <trkpt lat="46.37882" lon="6.73407">
        <ele>1598.29</ele>
        <time>2015-10-24T13:20:28Z</time>
      </trkpt>
      <trkpt lat="46.37886" lon="6.73381">
        <ele>1596.93</ele>
        <time>2015-10-24T13:20:42Z</time>
      </trkpt>
      <trkpt lat="46.37898" lon="6.73359">
        <ele>1595.09</ele>
        <time>2015-10-24T13:20:57Z</time>
      </trkpt>
      <trkpt lat="46.3791" lon="6.73338">
        <ele>1592.89</ele>
        <time>2015-10-24T13:21:13Z</time>
      </trkpt>
      <trkpt lat="46.37922" lon="6.73316">
        <ele>1593.71</ele>
        <time>2015-10-24T13:21:29Z</time>
      </trkpt>
      <trkpt lat="46.37929" lon="6.73292">
        <ele>1595.58</ele>
        <time>2015-10-24T13:21:44Z</time>
      </trkpt>
      <trkpt lat="46.37937" lon="6.73267">
        <ele>1597.39</ele>
        <time>2015-10-24T13:21:59Z</time>
      </trkpt>
      <trkpt lat="46.37944" lon="6.73243">
        <ele>1598.26</ele>
        <time>2015-10-24T13:22:14Z</time>
      </trkpt>
      <trkpt lat="46.37952" lon="6.73218">
        <ele>1598.54</ele>
        <time>2015-10-24T13:22:28Z</time>
      </trkpt>
      <trkpt lat="46.37954" lon="6.73191">
        <ele>1597.88</ele>
        <time>2015-10-24T13:22:46Z</time>
      </trkpt>
      <trkpt lat="46.37951" lon="6.73164">
        <ele>1596.23</ele>
        <time>2015-10-24T13:22:59Z</time>
      </trkpt>
      <trkpt lat="46.37956" lon="6.73138">
        <ele>1596.37</ele>
        <time>2015-10-24T13:23:18Z</time>
      </trkpt>
      <trkpt lat="46.37956" lon="6.73112">
        <ele>1595.72</ele>
        <time>2015-10-24T13:23:37Z</time>
      </trkpt>
      <trkpt lat="46.37952" lon="6.73085">
        <ele>1594.02</ele>
        <time>2015-10-24T13:23:52Z</time>
      </trkpt>
      <trkpt lat="46.37946" lon="6.73058">
        <ele>1592.71</ele>
        <time>2015-10-24T13:24:06Z</time>
      </trkpt>
      <trkpt lat="46.37938" lon="6.73032">
        <ele>1590.47</ele>
        <time>2015-10-24T13:24:16Z</time>
      </trkpt>
      <trkpt lat="46.37938" lon="6.73006">
        <ele>1590.12</ele>
        <time>2015-10-24T13:24:34Z</time>
      </trkpt>
      <trkpt lat="46.37931" lon="6.72982">
        <ele>1587.51</ele>
        <time>2015-10-24T13:24:46Z</time>
      </trkpt>
      <trkpt lat="46.37919" lon="6.72957">
        <ele>1582.79</ele>
        <time>2015-10-24T13:25:00Z</time>
      </trkpt>
      <trkpt lat="46.37922" lon="6.72929">
        <ele>1582.36</ele>
        <time>2015-10-24T13:25:20Z</time>
      </trkpt>
      <trkpt lat="46.37919" lon="6.72903">
        <ele>1580.36</ele>
        <time>2015-10-24T13:25:35Z</time>
      </trkpt>
      <trkpt lat="46.3791" lon="6.7288">
        <ele>1579.23</ele>
        <time>2015-10-24T13:25:47Z</time>
      </trkpt>
      <trkpt lat="46.37907" lon="6.72852">
        <ele>1578.28</ele>
        <time>2015-10-24T13:26:01Z</time>
      </trkpt>
      <trkpt lat="46.379" lon="6.72827">
        <ele>1577.59</ele>
        <time>2015-10-24T13:26:16Z</time>
      </trkpt>
      <trkpt lat="46.37902" lon="6.72801">
        <ele>1576.76</ele>
        <time>2015-10-24T13:26:40Z</time>
      </trkpt>
      <trkpt lat="46.37899" lon="6.72774">
        <ele>1575.93</ele>
        <time>2015-10-24T13:26:56Z</time>
      </trkpt>
      <trkpt lat="46.37896" lon="6.72746">
        <ele>1574.87</ele>
        <time>2015-10-24T13:27:12Z</time>
      </trkpt>
      <trkpt lat="46.37894" lon="6.72718">
        <ele>1573.59</ele>
        <time>2015-10-24T13:27:29Z</time>
      </trkpt>
      <trkpt lat="46.37881" lon="6.72698">
        <ele>1571.23</ele>
        <time>2015-10-24T13:27:43Z</time>
      </trkpt>
      <trkpt lat="46.37878" lon="6.72672">
        <ele>1569.32</ele>
        <time>2015-10-24T13:27:56Z</time>
      </trkpt>
      <trkpt lat="46.37876" lon="6.72645">
        <ele>1567.71</ele>
        <time>2015-10-24T13:28:09Z</time>
      </trkpt>
      <trkpt lat="46.37878" lon="6.72618">
        <ele>1567.05</ele>
        <time>2015-10-24T13:28:27Z</time>
      </trkpt>
      <trkpt lat="46.37867" lon="6.72594">
        <ele>1563.8</ele>
        <time>2015-10-24T13:28:43Z</time>
      </trkpt>
      <trkpt lat="46.37864" lon="6.72567">
        <ele>1561.74</ele>
        <time>2015-10-24T13:29:00Z</time>
      </trkpt>
      <trkpt lat="46.37861" lon="6.72539">
        <ele>1559.9</ele>
        <time>2015-10-24T13:29:17Z</time>
      </trkpt>
      <trkpt lat="46.37857" lon="6.72513">
        <ele>1557.62</ele>
        <time>2015-10-24T13:29:34Z</time>
      </trkpt>
      <trkpt lat="46.3785" lon="6.72489">
        <ele>1554.94</ele>
        <time>2015-10-24T13:29:59Z</time>
      </trkpt>
      <trkpt lat="46.37842" lon="6.72465">
        <ele>1552.13</ele>
        <time>2015-10-24T13:30:05Z</time>
      </trkpt>
      <trkpt lat="46.37836" lon="6.72438">
        <ele>1549.59</ele>
        <time>2015-10-24T13:30:17Z</time>
      </trkpt>
      <trkpt lat="46.3783" lon="6.72413">
        <ele>1548.62</ele>
        <time>2015-10-24T13:30:30Z</time>
      </trkpt>
      <trkpt lat="46.37829" lon="6.72385">
        <ele>1548.12</ele>
        <time>2015-10-24T13:30:50Z</time>
      </trkpt>
      <trkpt lat="46.37824" lon="6.7236">
        <ele>1548.29</ele>
        <time>2015-10-24T13:31:05Z</time>
      </trkpt>
      <trkpt lat="46.37819" lon="6.72334">
        <ele>1548.3</ele>
        <time>2015-10-24T13:31:22Z</time>
      </trkpt>
      <trkpt lat="46.37816" lon="6.72308">
        <ele>1549.11</ele>
        <time>2015-10-24T13:31:38Z</time>
      </trkpt>
      <trkpt lat="46.37813" lon="6.72282">
        <ele>1549.68</ele>
        <time>2015-10-24T13:31:52Z</time>
      </trkpt>
      <trkpt lat="46.3781" lon="6.72256">
        <ele>1549.97</ele>
        <time>2015-10-24T13:32:14Z</time>
      </trkpt>
      <trkpt lat="46.37802" lon="6.72232">
        <ele>1550.47</ele>
        <time>2015-10-24T13:32:31Z</time>
      </trkpt>
      <trkpt lat="46.37797" lon="6.72206">
        <ele>1550.7</ele>
        <time>2015-10-24T13:32:46Z</time>
      </trkpt>
      <trkpt lat="46.37791" lon="6.7218">
        <ele>1550.29</ele>
        <time>2015-10-24T13:33:02Z</time>
      </trkpt>
      <trkpt lat="46.37783" lon="6.72157">
        <ele>1549.14</ele>
        <time>2015-10-24T13:33:17Z</time>
      </trkpt>
      <trkpt lat="46.3778" lon="6.7213">
        <ele>1548.83</ele>
        <time>2015-10-24T13:33:39Z</time>
      </trkpt>
      <trkpt lat="46.37773" lon="6.72104">
        <ele>1547.17</ele>
        <time>2015-10-24T13:34:00Z</time>
      </trkpt>
      <trkpt lat="46.37759" lon="6.72086">
        <ele>1543.35</ele>
        <time>2015-10-24T13:34:21Z</time>
      </trkpt>
      <trkpt lat="46.37751" lon="6.72061">
        <ele>1541.07</ele>
        <time>2015-10-24T13:34:34Z</time>
      </trkpt>
      <trkpt lat="46.37747" lon="6.72035">
        <ele>1540.78</ele>
        <time>2015-10-24T13:35:27Z</time>
      </trkpt>
      <trkpt lat="46.37744" lon="6.72006">
        <ele>1540.34</ele>
        <time>2015-10-24T13:35:57Z</time>
      </trkpt>
      <trkpt lat="46.37737" lon="6.71982">
        <ele>1541.73</ele>
        <time>2015-10-24T13:36:24Z</time>
      </trkpt>
      <trkpt lat="46.37728" lon="6.71959">
        <ele>1542.66</ele>
        <time>2015-10-24T13:36:37Z</time>
      </trkpt>
      <trkpt lat="46.37718" lon="6.71936">
        <ele>1542.14</ele>
        <time>2015-10-24T13:36:57Z</time>
      </trkpt>
      <trkpt lat="46.37711" lon="6.7191">
        <ele>1541.4</ele>
        <time>2015-10-24T13:37:13Z</time>
      </trkpt>
      <trkpt lat="46.37703" lon="6.71885">
        <ele>1540.5</ele>
        <time>2015-10-24T13:37:29Z</time>
      </trkpt>
      <trkpt lat="46.37696" lon="6.71861">
        <ele>1539.72</ele>
        <time>2015-10-24T13:37:46Z</time>
      </trkpt>
      <trkpt lat="46.37691" lon="6.71836">
        <ele>1538.89</ele>
        <time>2015-10-24T13:37:58Z</time>
      </trkpt>
      <trkpt lat="46.37685" lon="6.71811">
        <ele>1538.2</ele>
        <time>2015-10-24T13:38:15Z</time>
      </trkpt>
      <trkpt lat="46.37684" lon="6.71784">
        <ele>1538.75</ele>
        <time>2015-10-24T13:38:32Z</time>
      </trkpt>
      <trkpt lat="46.37684" lon="6.71757">
        <ele>1539.81</ele>
        <time>2015-10-24T13:38:49Z</time>
      </trkpt>
      <trkpt lat="46.37681" lon="6.7173">
        <ele>1540.26</ele>
        <time>2015-10-24T13:39:06Z</time>
      </trkpt>
      <trkpt lat="46.37678" lon="6.71703">
        <ele>1540.93</ele>
        <time>2015-10-24T13:39:24Z</time>
      </trkpt>
      <trkpt lat="46.37677" lon="6.71677">
        <ele>1541.88</ele>
        <time>2015-10-24T13:39:42Z</time>
      </trkpt>
      <trkpt lat="46.37676" lon="6.71651">
        <ele>1542.62</ele>
        <time>2015-10-24T13:39:58Z</time>
      </trkpt>
      <trkpt lat="46.37673" lon="6.71624">
        <ele>1542.77</ele>
        <time>2015-10-24T13:40:15Z</time>
      </trkpt>
      <trkpt lat="46.37672" lon="6.71597">
        <ele>1543.73</ele>
        <time>2015-10-24T13:40:29Z</time>
      </trkpt>
      <trkpt lat="46.37669" lon="6.71571">
        <ele>1544.63</ele>
        <time>2015-10-24T13:40:44Z</time>
      </trkpt>
      <trkpt lat="46.37666" lon="6.71543">
        <ele>1546.58</ele>
        <time>2015-10-24T13:41:04Z</time>
      </trkpt>
      <trkpt lat="46.37655" lon="6.71521">
        <ele>1545.13</ele>
        <time>2015-10-24T13:41:27Z</time>
      </trkpt>
      <trkpt lat="46.37648" lon="6.71495">
        <ele>1545.69</ele>
        <time>2015-10-24T13:41:46Z</time>
      </trkpt>
      <trkpt lat="46.3764" lon="6.71471">
        <ele>1546.87</ele>
        <time>2015-10-24T13:42:02Z</time>
      </trkpt>
      <trkpt lat="46.37632" lon="6.71447">
        <ele>1547.44</ele>
        <time>2015-10-24T13:42:15Z</time>
      </trkpt>
      <trkpt lat="46.3762" lon="6.71427">
        <ele>1546.31</ele>
        <time>2015-10-24T13:42:32Z</time>
      </trkpt>
      <trkpt lat="46.3761" lon="6.71403">
        <ele>1546.75</ele>
        <time>2015-10-24T13:42:54Z</time>
      </trkpt>
      <trkpt lat="46.37603" lon="6.71375">
        <ele>1548.73</ele>
        <time>2015-10-24T13:43:15Z</time>
      </trkpt>
      <trkpt lat="46.3759" lon="6.71356">
        <ele>1546.96</ele>
        <time>2015-10-24T13:43:30Z</time>
      </trkpt>
      <trkpt lat="46.37574" lon="6.7134">
        <ele>1543.35</ele>
        <time>2015-10-24T13:43:48Z</time>
      </trkpt>
      <trkpt lat="46.37564" lon="6.71316">
        <ele>1543.48</ele>
        <time>2015-10-24T13:44:03Z</time>
      </trkpt>
      <trkpt lat="46.37557" lon="6.71292">
        <ele>1544.76</ele>
        <time>2015-10-24T13:44:25Z</time>
      </trkpt>
      <trkpt lat="46.3755" lon="6.71268">
        <ele>1545.56</ele>
        <time>2015-10-24T13:44:45Z</time>
      </trkpt>
      <trkpt lat="46.3754" lon="6.71245">
        <ele>1544.75</ele>
        <time>2015-10-24T13:44:58Z</time>
      </trkpt>
      <trkpt lat="46.37527" lon="6.71227">
        <ele>1541.87</ele>
        <time>2015-10-24T13:45:14Z</time>
      </trkpt>
      <trkpt lat="46.37517" lon="6.71204">
        <ele>1540.78</ele>
        <time>2015-10-24T13:45:30Z</time>
      </trkpt>
      <trkpt lat="46.37507" lon="6.71182">
        <ele>1539.77</ele>
        <time>2015-10-24T13:45:45Z</time>
      </trkpt>
      <trkpt lat="46.37494" lon="6.7116">
        <ele>1537.91</ele>
        <time>2015-10-24T13:46:02Z</time>
      </trkpt>
      <trkpt lat="46.37481" lon="6.71141">
        <ele>1536.27</ele>
        <time>2015-10-24T13:46:14Z</time>
      </trkpt>
      <trkpt lat="46.37469" lon="6.7112">
        <ele>1535.34</ele>
        <time>2015-10-24T13:46:30Z</time>
      </trkpt>
      <trkpt lat="46.37456" lon="6.71098">
        <ele>1534.38</ele>
        <time>2015-10-24T13:46:48Z</time>
      </trkpt>
      <trkpt lat="46.37443" lon="6.7108">
        <ele>1532.48</ele>
        <time>2015-10-24T13:47:03Z</time>
      </trkpt>
      <trkpt lat="46.3743" lon="6.7106">
        <ele>1530.92</ele>
        <time>2015-10-24T13:47:19Z</time>
      </trkpt>
      <trkpt lat="46.3742" lon="6.71037">
        <ele>1531.56</ele>
        <time>2015-10-24T13:47:31Z</time>
      </trkpt>
      <trkpt lat="46.37406" lon="6.71018">
        <ele>1530.3</ele>
        <time>2015-10-24T13:47:47Z</time>
      </trkpt>
      <trkpt lat="46.3739" lon="6.71005">
        <ele>1527.65</ele>
        <time>2015-10-24T13:48:05Z</time>
      </trkpt>
      <trkpt lat="46.37377" lon="6.70986">
        <ele>1527.18</ele>
        <time>2015-10-24T13:48:27Z</time>
      </trkpt>
      <trkpt lat="46.37368" lon="6.70964">
        <ele>1528.48</ele>
        <time>2015-10-24T13:48:44Z</time>
      </trkpt>
      <trkpt lat="46.37354" lon="6.70943">
        <ele>1528.2</ele>
        <time>2015-10-24T13:48:58Z</time>
      </trkpt>
      <trkpt lat="46.37341" lon="6.70924">
        <ele>1528.24</ele>
        <time>2015-10-24T13:49:16Z</time>
      </trkpt>
      <trkpt lat="46.37329" lon="6.70904">
        <ele>1528.9</ele>
        <time>2015-10-24T13:49:32Z</time>
      </trkpt>
      <trkpt lat="46.37319" lon="6.70882">
        <ele>1531.66</ele>
        <time>2015-10-24T13:49:45Z</time>
      </trkpt>
      <trkpt lat="46.37306" lon="6.70862">
        <ele>1533.66</ele>
        <time>2015-10-24T13:50:02Z</time>
      </trkpt>
      <trkpt lat="46.37293" lon="6.70843">
        <ele>1535.52</ele>
        <time>2015-10-24T13:50:17Z</time>
      </trkpt>
      <trkpt lat="46.37278" lon="6.70828">
        <ele>1536.7</ele>
        <time>2015-10-24T13:50:33Z</time>
      </trkpt>
      <trkpt lat="46.37263" lon="6.70813">
        <ele>1537.74</ele>
        <time>2015-10-24T13:50:51Z</time>
      </trkpt>
      <trkpt lat="46.3725" lon="6.70793">
        <ele>1540.6</ele>
        <time>2015-10-24T13:51:06Z</time>
      </trkpt>
      <trkpt lat="46.37232" lon="6.70782">
        <ele>1539.96</ele>
        <time>2015-10-24T13:54:23Z</time>
      </trkpt>
      <trkpt lat="46.37215" lon="6.70772">
        <ele>1539.93</ele>
        <time>2015-10-24T13:54:39Z</time>
      </trkpt>
      <trkpt lat="46.372" lon="6.70759">
        <ele>1541.17</ele>
        <time>2015-10-24T13:54:56Z</time>
      </trkpt>
      <trkpt lat="46.37183" lon="6.70746">
        <ele>1541.88</ele>
        <time>2015-10-24T13:55:14Z</time>
      </trkpt>
      <trkpt lat="46.37165" lon="6.70737">
        <ele>1540.52</ele>
        <time>2015-10-24T13:55:34Z</time>
      </trkpt>
      <trkpt lat="46.37148" lon="6.70726">
        <ele>1536.87</ele>
        <time>2015-10-24T13:55:50Z</time>
      </trkpt>
      <trkpt lat="46.37134" lon="6.70707">
        <ele>1536.37</ele>
        <time>2015-10-24T13:56:09Z</time>
      </trkpt>
      <trkpt lat="46.3712" lon="6.70687">
        <ele>1535.59</ele>
        <time>2015-10-24T13:56:22Z</time>
      </trkpt>
      <trkpt lat="46.37108" lon="6.70667">
        <ele>1535.53</ele>
        <time>2015-10-24T13:56:41Z</time>
      </trkpt>
      <trkpt lat="46.37101" lon="6.70643">
        <ele>1536.01</ele>
        <time>2015-10-24T13:56:56Z</time>
      </trkpt>
      <trkpt lat="46.37089" lon="6.70622">
        <ele>1533.48</ele>
        <time>2015-10-24T13:57:07Z</time>
      </trkpt>
      <trkpt lat="46.37079" lon="6.706">
        <ele>1530.41</ele>
        <time>2015-10-24T13:57:27Z</time>
      </trkpt>
      <trkpt lat="46.37067" lon="6.70576">
        <ele>1515</ele>
        <time>2015-10-24T13:57:46Z</time>
      </trkpt>
      <trkpt lat="46.37062" lon="6.70551">
        <ele>1504</ele>
        <time>2015-10-24T13:58:14Z</time>
      </trkpt>
      <trkpt lat="46.37044" lon="6.70559">
        <ele>1499</ele>
        <time>2015-10-24T13:59:06Z</time>
      </trkpt>
      <trkpt lat="46.37031" lon="6.70578">
        <ele>1494</ele>
        <time>2015-10-24T13:59:37Z</time>
      </trkpt>
      <trkpt lat="46.37018" lon="6.706">
        <ele>1490.69</ele>
        <time>2015-10-24T14:00:23Z</time>
      </trkpt>
      <trkpt lat="46.37002" lon="6.70612">
        <ele>1481.34</ele>
        <time>2015-10-24T14:01:07Z</time>
      </trkpt>
      <trkpt lat="46.36988" lon="6.7063">
        <ele>1472.25</ele>
        <time>2015-10-24T14:01:25Z</time>
      </trkpt>
      <trkpt lat="46.36975" lon="6.70651">
        <ele>1466.74</ele>
        <time>2015-10-24T14:02:00Z</time>
      </trkpt>
      <trkpt lat="46.36959" lon="6.70666">
        <ele>1460.1</ele>
        <time>2015-10-24T14:03:06Z</time>
      </trkpt>
      <trkpt lat="46.36955" lon="6.70692">
        <ele>1459.13</ele>
        <time>2015-10-24T14:03:38Z</time>
      </trkpt>
      <trkpt lat="46.36945" lon="6.70713">
        <ele>1455.92</ele>
        <time>2015-10-24T14:04:39Z</time>
      </trkpt>
      <trkpt lat="46.36928" lon="6.70707">
        <ele>1446.87</ele>
        <time>2015-10-24T14:05:07Z</time>
      </trkpt>
      <trkpt lat="46.36918" lon="6.70729">
        <ele>1446.33</ele>
        <time>2015-10-24T14:10:50Z</time>
      </trkpt>
      <trkpt lat="46.36914" lon="6.70702">
        <ele>1439.71</ele>
        <time>2015-10-24T14:11:23Z</time>
      </trkpt>
      <trkpt lat="46.36919" lon="6.70675">
        <ele>1437.1</ele>
        <time>2015-10-24T14:12:40Z</time>
      </trkpt>
      <trkpt lat="46.36926" lon="6.7065">
        <ele>1432.95</ele>
        <time>2015-10-24T14:13:36Z</time>
      </trkpt>
      <trkpt lat="46.36915" lon="6.70629">
        <ele>1417.32</ele>
        <time>2015-10-24T14:15:01Z</time>
      </trkpt>
      <trkpt lat="46.36902" lon="6.70609">
        <ele>1404.07</ele>
        <time>2015-10-24T14:16:09Z</time>
      </trkpt>
      <trkpt lat="46.36892" lon="6.70587">
        <ele>1390.96</ele>
        <time>2015-10-24T14:16:37Z</time>
      </trkpt>
      <trkpt lat="46.3688" lon="6.70566">
        <ele>1380.71</ele>
        <time>2015-10-24T14:17:20Z</time>
      </trkpt>
      <trkpt lat="46.36867" lon="6.70547">
        <ele>1371.12</ele>
        <time>2015-10-24T14:17:54Z</time>
      </trkpt>
      <trkpt lat="46.36851" lon="6.7053">
        <ele>1361.27</ele>
        <time>2015-10-24T14:19:19Z</time>
      </trkpt>
      <trkpt lat="46.36836" lon="6.70515">
        <ele>1352.39</ele>
        <time>2015-10-24T14:19:48Z</time>
      </trkpt>
      <trkpt lat="46.36826" lon="6.70492">
        <ele>1346.29</ele>
        <time>2015-10-24T14:20:06Z</time>
      </trkpt>
      <trkpt lat="46.36808" lon="6.70493">
        <ele>1340.1</ele>
        <time>2015-10-24T14:20:26Z</time>
      </trkpt>
      <trkpt lat="46.3679" lon="6.70481">
        <ele>1334.55</ele>
        <time>2015-10-24T14:22:23Z</time>
      </trkpt>
      <trkpt lat="46.36775" lon="6.70464">
        <ele>1329.08</ele>
        <time>2015-10-24T14:22:41Z</time>
      </trkpt>
      <trkpt lat="46.3676" lon="6.70448">
        <ele>1323.19</ele>
        <time>2015-10-24T14:23:02Z</time>
      </trkpt>
      <trkpt lat="46.36744" lon="6.70434">
        <ele>1316.45</ele>
        <time>2015-10-24T14:23:23Z</time>
      </trkpt>
      <trkpt lat="46.36728" lon="6.70421">
        <ele>1309.43</ele>
        <time>2015-10-24T14:23:41Z</time>
      </trkpt>
      <trkpt lat="46.36711" lon="6.70411">
        <ele>1303.1</ele>
        <time>2015-10-24T14:23:54Z</time>
      </trkpt>
      <trkpt lat="46.36693" lon="6.70402">
        <ele>1297.19</ele>
        <time>2015-10-24T14:24:07Z</time>
      </trkpt>
      <trkpt lat="46.36678" lon="6.70389">
        <ele>1292.81</ele>
        <time>2015-10-24T14:24:22Z</time>
      </trkpt>
      <trkpt lat="46.36662" lon="6.70374">
        <ele>1288.78</ele>
        <time>2015-10-24T14:24:37Z</time>
      </trkpt>
      <trkpt lat="46.36646" lon="6.70361">
        <ele>1283.96</ele>
        <time>2015-10-24T14:24:54Z</time>
      </trkpt>
      <trkpt lat="46.36629" lon="6.70348">
        <ele>1278.72</ele>
        <time>2015-10-24T14:25:09Z</time>
      </trkpt>
      <trkpt lat="46.36612" lon="6.70339">
        <ele>1272.63</ele>
        <time>2015-10-24T14:25:25Z</time>
      </trkpt>
      <trkpt lat="46.36598" lon="6.70322">
        <ele>1269</ele>
        <time>2015-10-24T14:25:41Z</time>
      </trkpt>
      <trkpt lat="46.36589" lon="6.70298">
        <ele>1269.34</ele>
        <time>2015-10-24T14:26:06Z</time>
      </trkpt>
      <trkpt lat="46.36573" lon="6.70285">
        <ele>1264.84</ele>
        <time>2015-10-24T14:26:39Z</time>
      </trkpt>
      <trkpt lat="46.36556" lon="6.70277">
        <ele>1258.92</ele>
        <time>2015-10-24T14:26:54Z</time>
      </trkpt>
      <trkpt lat="46.36545" lon="6.70255">
        <ele>1258.19</ele>
        <time>2015-10-24T14:27:09Z</time>
      </trkpt>
      <trkpt lat="46.36536" lon="6.70232">
        <ele>1259</ele>
        <time>2015-10-24T14:27:25Z</time>
      </trkpt>
      <trkpt lat="46.36532" lon="6.70206">
        <ele>1262.68</ele>
        <time>2015-10-24T14:27:46Z</time>
      </trkpt>
      <trkpt lat="46.36516" lon="6.70192">
        <ele>1258.24</ele>
        <time>2015-10-24T14:28:10Z</time>
      </trkpt>
      <trkpt lat="46.36497" lon="6.70195">
        <ele>1249.92</ele>
        <time>2015-10-24T14:28:26Z</time>
      </trkpt>
      <trkpt lat="46.3648" lon="6.70187">
        <ele>1247.26</ele>
        <time>2015-10-24T14:28:45Z</time>
      </trkpt>
      <trkpt lat="46.36466" lon="6.7017">
        <ele>1247.63</ele>
        <time>2015-10-24T14:29:05Z</time>
      </trkpt>
      <trkpt lat="46.36455" lon="6.70149">
        <ele>1248.7</ele>
        <time>2015-10-24T14:29:21Z</time>
      </trkpt>
      <trkpt lat="46.36449" lon="6.70124">
        <ele>1251.05</ele>
        <time>2015-10-24T14:29:36Z</time>
      </trkpt>
      <trkpt lat="46.3644" lon="6.701">
        <ele>1251.84</ele>
        <time>2015-10-24T14:29:49Z</time>
      </trkpt>
      <trkpt lat="46.36429" lon="6.70077">
        <ele>1250.63</ele>
        <time>2015-10-24T14:30:06Z</time>
      </trkpt>
      <trkpt lat="46.36414" lon="6.70063">
        <ele>1245.86</ele>
        <time>2015-10-24T14:30:43Z</time>
      </trkpt>
      <trkpt lat="46.36408" lon="6.70037">
        <ele>1245.4</ele>
        <time>2015-10-24T14:31:01Z</time>
      </trkpt>
      <trkpt lat="46.36404" lon="6.70011">
        <ele>1245.54</ele>
        <time>2015-10-24T14:31:18Z</time>
      </trkpt>
      <trkpt lat="46.36407" lon="6.69984">
        <ele>1246.55</ele>
        <time>2015-10-24T14:31:32Z</time>
      </trkpt>
      <trkpt lat="46.36408" lon="6.69957">
        <ele>1246.59</ele>
        <time>2015-10-24T14:31:47Z</time>
      </trkpt>
      <trkpt lat="46.36413" lon="6.69931">
        <ele>1247.32</ele>
        <time>2015-10-24T14:32:03Z</time>
      </trkpt>
      <trkpt lat="46.36417" lon="6.69905">
        <ele>1248.28</ele>
        <time>2015-10-24T14:32:17Z</time>
      </trkpt>
      <trkpt lat="46.36413" lon="6.69879">
        <ele>1247.63</ele>
        <time>2015-10-24T14:32:34Z</time>
      </trkpt>
      <trkpt lat="46.36411" lon="6.69852">
        <ele>1247.56</ele>
        <time>2015-10-24T14:32:49Z</time>
      </trkpt>
      <trkpt lat="46.36409" lon="6.69824">
        <ele>1248.15</ele>
        <time>2015-10-24T14:33:03Z</time>
      </trkpt>
      <trkpt lat="46.36404" lon="6.69795">
        <ele>1248.69</ele>
        <time>2015-10-24T14:33:17Z</time>
      </trkpt>
      <trkpt lat="46.36417" lon="6.69775">
        <ele>1253.24</ele>
        <time>2015-10-24T14:33:36Z</time>
      </trkpt>
      <trkpt lat="46.36431" lon="6.69757">
        <ele>1257.26</ele>
        <time>2015-10-24T14:33:49Z</time>
      </trkpt>
      <trkpt lat="46.36441" lon="6.69735">
        <ele>1259.21</ele>
        <time>2015-10-24T14:34:03Z</time>
      </trkpt>
      <trkpt lat="46.36449" lon="6.69712">
        <ele>1259.9</ele>
        <time>2015-10-24T14:34:18Z</time>
      </trkpt>
      <trkpt lat="46.36457" lon="6.69686">
        <ele>1260.01</ele>
        <time>2015-10-24T14:34:36Z</time>
      </trkpt>
      <trkpt lat="46.36453" lon="6.6966">
        <ele>1258.91</ele>
        <time>2015-10-24T14:34:51Z</time>
      </trkpt>
      <trkpt lat="46.3645" lon="6.69634">
        <ele>1257.98</ele>
        <time>2015-10-24T14:35:07Z</time>
      </trkpt>
      <trkpt lat="46.36446" lon="6.69608">
        <ele>1256.84</ele>
        <time>2015-10-24T14:35:20Z</time>
      </trkpt>
      <trkpt lat="46.3645" lon="6.69582">
        <ele>1256.77</ele>
        <time>2015-10-24T14:35:32Z</time>
      </trkpt>
      <trkpt lat="46.36455" lon="6.69555">
        <ele>1255.67</ele>
        <time>2015-10-24T14:35:45Z</time>
      </trkpt>
      <trkpt lat="46.36463" lon="6.69532">
        <ele>1255.26</ele>
        <time>2015-10-24T14:35:59Z</time>
      </trkpt>
      <trkpt lat="46.36473" lon="6.69509">
        <ele>1255.07</ele>
        <time>2015-10-24T14:36:13Z</time>
      </trkpt>
      <trkpt lat="46.36476" lon="6.69483">
        <ele>1253.5</ele>
        <time>2015-10-24T14:36:27Z</time>
      </trkpt>
      <trkpt lat="46.36473" lon="6.69455">
        <ele>1250.85</ele>
        <time>2015-10-24T14:36:42Z</time>
      </trkpt>
      <trkpt lat="46.3647" lon="6.69429">
        <ele>1248.39</ele>
        <time>2015-10-24T14:36:58Z</time>
      </trkpt>
      <trkpt lat="46.36472" lon="6.69403">
        <ele>1244.79</ele>
        <time>2015-10-24T14:37:12Z</time>
      </trkpt>
      <trkpt lat="46.36481" lon="6.6938">
        <ele>1241.57</ele>
        <time>2015-10-24T14:37:26Z</time>
      </trkpt>
      <trkpt lat="46.36496" lon="6.69362">
        <ele>1240.58</ele>
        <time>2015-10-24T14:37:45Z</time>
      </trkpt>
      <trkpt lat="46.36512" lon="6.69348">
        <ele>1241.64</ele>
        <time>2015-10-24T14:37:59Z</time>
      </trkpt>
      <trkpt lat="46.36528" lon="6.69336">
        <ele>1243.6</ele>
        <time>2015-10-24T14:38:13Z</time>
      </trkpt>
      <trkpt lat="46.36534" lon="6.69311">
        <ele>1238.97</ele>
        <time>2015-10-24T14:38:29Z</time>
      </trkpt>
      <trkpt lat="46.36545" lon="6.6929">
        <ele>1236.71</ele>
        <time>2015-10-24T14:38:43Z</time>
      </trkpt>
      <trkpt lat="46.36562" lon="6.69276">
        <ele>1238.16</ele>
        <time>2015-10-24T14:38:56Z</time>
      </trkpt>
      <trkpt lat="46.36576" lon="6.69256">
        <ele>1237.94</ele>
        <time>2015-10-24T14:39:12Z</time>
      </trkpt>
      <trkpt lat="46.36592" lon="6.69246">
        <ele>1239.94</ele>
        <time>2015-10-24T14:39:28Z</time>
      </trkpt>
      <trkpt lat="46.36607" lon="6.69229">
        <ele>1238.32</ele>
        <time>2015-10-24T14:39:47Z</time>
      </trkpt>
      <trkpt lat="46.36623" lon="6.69213">
        <ele>1237</ele>
        <time>2015-10-24T14:40:52Z</time>
      </trkpt>
      <trkpt lat="46.3664" lon="6.69202">
        <ele>1237.28</ele>
        <time>2015-10-24T14:41:19Z</time>
      </trkpt>
      <trkpt lat="46.36656" lon="6.69188">
        <ele>1235.91</ele>
        <time>2015-10-24T14:41:35Z</time>
      </trkpt>
      <trkpt lat="46.36671" lon="6.69173">
        <ele>1233.57</ele>
        <time>2015-10-24T14:42:47Z</time>
      </trkpt>
      <trkpt lat="46.36686" lon="6.69156">
        <ele>1230.55</ele>
        <time>2015-10-24T14:44:19Z</time>
      </trkpt>
      <trkpt lat="46.36697" lon="6.69136">
        <ele>1227.22</ele>
        <time>2015-10-24T14:45:02Z</time>
      </trkpt>
      <trkpt lat="46.36708" lon="6.69113">
        <ele>1223.09</ele>
        <time>2015-10-24T14:45:31Z</time>
      </trkpt>
      <trkpt lat="46.36721" lon="6.69094">
        <ele>1220.02</ele>
        <time>2015-10-24T14:45:49Z</time>
      </trkpt>
      <trkpt lat="46.36734" lon="6.69076">
        <ele>1216.4</ele>
        <time>2015-10-24T14:46:05Z</time>
      </trkpt>
      <trkpt lat="46.36751" lon="6.69063">
        <ele>1213.55</ele>
        <time>2015-10-24T14:46:22Z</time>
      </trkpt>
      <trkpt lat="46.36768" lon="6.69054">
        <ele>1209.89</ele>
        <time>2015-10-24T14:46:37Z</time>
      </trkpt>
      <trkpt lat="46.36785" lon="6.69044">
        <ele>1206.24</ele>
        <time>2015-10-24T14:46:54Z</time>
      </trkpt>
      <trkpt lat="46.36803" lon="6.69039">
        <ele>1204</ele>
        <time>2015-10-24T14:47:10Z</time>
      </trkpt>
      <trkpt lat="46.36821" lon="6.69033">
        <ele>1201.61</ele>
        <time>2015-10-24T14:47:27Z</time>
      </trkpt>
      <trkpt lat="46.3684" lon="6.69031">
        <ele>1200.1</ele>
        <time>2015-10-24T14:47:43Z</time>
      </trkpt>
      <trkpt lat="46.36858" lon="6.69033">
        <ele>1198.9</ele>
        <time>2015-10-24T14:47:58Z</time>
      </trkpt>
      <trkpt lat="46.36877" lon="6.69029">
        <ele>1196.27</ele>
        <time>2015-10-24T14:48:12Z</time>
      </trkpt>
      <trkpt lat="46.36895" lon="6.69022">
        <ele>1192.61</ele>
        <time>2015-10-24T14:48:28Z</time>
      </trkpt>
      <trkpt lat="46.36915" lon="6.69019">
        <ele>1189.91</ele>
        <time>2015-10-24T14:48:44Z</time>
      </trkpt>
      <trkpt lat="46.36933" lon="6.69014">
        <ele>1186.89</ele>
        <time>2015-10-24T14:48:59Z</time>
      </trkpt>
      <trkpt lat="46.36951" lon="6.69011">
        <ele>1184.55</ele>
        <time>2015-10-24T14:49:15Z</time>
      </trkpt>
      <trkpt lat="46.36968" lon="6.69005">
        <ele>1181.16</ele>
        <time>2015-10-24T14:49:29Z</time>
      </trkpt>
      <trkpt lat="46.36987" lon="6.69003">
        <ele>1179.16</ele>
        <time>2015-10-24T14:49:42Z</time>
      </trkpt>
      <trkpt lat="46.37004" lon="6.68993">
        <ele>1175.72</ele>
        <time>2015-10-24T14:49:54Z</time>
      </trkpt>
      <trkpt lat="46.37017" lon="6.68975">
        <ele>1172.43</ele>
        <time>2015-10-24T14:50:09Z</time>
      </trkpt>
      <trkpt lat="46.37022" lon="6.6895">
        <ele>1168.79</ele>
        <time>2015-10-24T14:50:31Z</time>
      </trkpt>
      <trkpt lat="46.37012" lon="6.68927">
        <ele>1165.23</ele>
        <time>2015-10-24T14:50:56Z</time>
      </trkpt>
    </trkseg>
  </trk>
</gpx>